createdAt,value
2019-01-27T00:01:40.709Z,89.68
2019-01-27T00:04:10.214Z,89.86
2019-01-27T00:06:39.719Z,90.51
2019-01-27T00:09:10.456Z,90.55
2019-01-27T00:11:40.558Z,90.23
2019-01-27T00:14:10.173Z,89.81
2019-01-27T00:16:39.721Z,89.89
2019-01-27T00:19:09.368Z,89.89
2019-01-27T00:21:39.242Z,90.46
2019-01-27T00:24:08.715Z,90.76
2019-01-27T00:26:38.603Z,89.29
2019-01-27T00:29:08.539Z,89.62
2019-01-27T00:31:38.648Z,89.46
2019-01-27T00:34:08.203Z,88.54
2019-01-27T00:36:37.703Z,88.83
2019-01-27T00:39:09.896Z,88.26
2019-01-27T00:41:39.415Z,87.91
2019-01-27T00:44:28.535Z,89.42
2019-01-27T00:46:58.003Z,88.51
2019-01-27T00:49:27.506Z,89.20
2019-01-27T00:51:57.011Z,89.84
2019-01-27T00:54:26.547Z,89.23
2019-01-27T00:56:56.118Z,90.60
2019-01-27T00:59:25.679Z,90.18
2019-01-27T01:01:55.167Z,89.82
2019-01-27T01:04:25.036Z,88.98
2019-01-27T01:06:55.141Z,89.05
2019-01-27T01:09:24.583Z,88.69
2019-01-27T01:11:54.157Z,88.83
2019-01-27T01:14:23.671Z,87.83
2019-01-27T01:16:53.183Z,88.50
2019-01-27T01:19:22.724Z,88.75
2019-01-27T01:21:52.265Z,87.74
2019-01-27T01:24:21.753Z,88.10
2019-01-27T01:26:51.239Z,88.54
2019-01-27T01:29:20.856Z,88.37
2019-01-27T01:31:50.453Z,87.98
2019-01-27T01:34:19.957Z,87.75
2019-01-27T01:36:49.535Z,87.02
2019-01-27T01:39:19.044Z,86.58
2019-01-27T01:41:48.598Z,86.67
2019-01-27T01:44:18.119Z,86.05
2019-01-27T01:46:47.597Z,87.43
2019-01-27T01:49:17.067Z,87.15
2019-01-27T01:51:46.652Z,87.34
2019-01-27T01:54:16.335Z,87.86
2019-01-27T01:56:45.855Z,87.32
2019-01-27T01:59:15.392Z,87.06
2019-01-27T02:01:45.031Z,86.50
2019-01-27T02:04:15.067Z,85.75
2019-01-27T02:06:44.794Z,85.62
2019-01-27T02:09:14.238Z,85.86
2019-01-27T02:11:43.769Z,85.68
2019-01-27T02:14:13.627Z,85.96
2019-01-27T02:16:43.359Z,86.48
2019-01-27T02:19:12.864Z,87.29
2019-01-27T02:21:43.951Z,86.95
2019-01-27T02:24:13.561Z,87.14
2019-01-27T02:26:43.795Z,87.56
2019-01-27T02:29:13.454Z,87.49
2019-01-27T02:31:42.958Z,86.81
2019-01-27T02:34:12.428Z,86.39
2019-01-27T02:36:42.628Z,87.58
2019-01-27T02:39:12.122Z,86.96
2019-01-27T02:41:41.589Z,87.20
2019-01-27T02:44:11.113Z,87.15
2019-01-27T02:46:40.616Z,86.86
2019-01-27T02:49:10.133Z,87.99
2019-01-27T02:51:39.629Z,88.00
2019-01-27T02:54:09.162Z,87.76
2019-01-27T02:56:38.635Z,88.25
2019-01-27T02:59:08.272Z,88.19
2019-01-27T03:01:47.230Z,88.38
2019-01-27T03:04:16.743Z,88.13
2019-01-27T03:06:47.915Z,88.09
2019-01-27T03:09:18.840Z,87.50
2019-01-27T03:11:48.344Z,87.07
2019-01-27T03:14:18.321Z,87.04
2019-01-27T03:16:48.543Z,86.62
2019-01-27T03:19:18.275Z,86.95
2019-01-27T03:21:47.765Z,86.55
2019-01-27T03:24:17.231Z,85.40
2019-01-27T03:26:46.743Z,86.01
2019-01-27T03:29:16.227Z,86.55
2019-01-27T03:31:45.729Z,85.89
2019-01-27T03:34:15.253Z,85.39
2019-01-27T03:36:44.739Z,85.89
2019-01-27T03:39:14.205Z,85.60
2019-01-27T03:41:43.938Z,86.23
2019-01-27T03:44:13.422Z,86.77
2019-01-27T03:46:42.921Z,85.65
2019-01-27T03:49:12.434Z,85.87
2019-01-27T03:51:41.996Z,86.88
2019-01-27T03:54:11.533Z,86.25
2019-01-27T03:56:41.173Z,87.11
2019-01-27T03:59:10.719Z,87.13
2019-01-27T04:01:40.201Z,86.98
2019-01-27T04:04:10.164Z,87.12
2019-01-27T04:06:39.680Z,86.36
2019-01-27T04:09:09.348Z,87.40
2019-01-27T04:11:38.837Z,87.55
2019-01-27T04:14:08.310Z,87.58
2019-01-27T04:16:37.904Z,86.94
2019-01-27T04:19:07.460Z,87.92
2019-01-27T04:21:37.002Z,87.87
2019-01-27T04:24:06.611Z,87.46
2019-01-27T04:26:36.454Z,88.09
2019-01-27T04:29:06.556Z,87.73
2019-01-27T04:31:36.041Z,87.66
2019-01-27T04:34:06.559Z,87.34
2019-01-27T04:36:36.026Z,86.57
2019-01-27T04:39:08.479Z,86.59
2019-01-27T04:41:38.729Z,86.96
2019-01-27T04:44:08.794Z,86.51
2019-01-27T04:46:38.305Z,86.54
2019-01-27T04:49:07.858Z,87.13
2019-01-27T04:51:37.359Z,86.58
2019-01-27T04:54:06.964Z,86.72
2019-01-27T04:56:36.456Z,87.63
2019-01-27T04:59:06.104Z,86.98
2019-01-27T05:01:35.660Z,86.40
2019-01-27T05:04:07.337Z,86.34
2019-01-27T05:06:36.816Z,86.24
2019-01-27T05:09:09.962Z,87.24
2019-01-27T05:11:39.567Z,87.61
2019-01-27T05:14:09.066Z,86.85
2019-01-27T05:16:38.672Z,86.42
2019-01-27T05:19:08.777Z,86.60
2019-01-27T05:21:38.603Z,86.22
2019-01-27T05:24:08.212Z,87.08
2019-01-27T05:26:37.725Z,86.90
2019-01-27T05:29:07.226Z,86.86
2019-01-27T05:31:36.765Z,87.27
2019-01-27T05:34:06.346Z,87.08
2019-01-27T05:36:35.831Z,86.33
2019-01-27T05:39:08.014Z,86.06
2019-01-27T05:41:37.766Z,86.01
2019-01-27T05:44:07.321Z,86.50
2019-01-27T05:46:36.826Z,87.02
2019-01-27T05:49:06.370Z,86.67
2019-01-27T05:51:35.876Z,86.54
2019-01-27T05:54:05.684Z,86.31
2019-01-27T05:56:35.204Z,86.38
2019-01-27T05:59:04.716Z,87.24
2019-01-27T06:01:34.262Z,87.76
2019-01-27T06:04:04.075Z,87.49
2019-01-27T06:06:33.589Z,87.85
2019-01-27T06:09:03.936Z,87.60
2019-01-27T06:11:33.436Z,87.34
2019-01-27T06:14:02.910Z,87.50
2019-01-27T06:16:32.386Z,86.66
2019-01-27T06:19:01.884Z,86.70
2019-01-27T06:21:31.358Z,86.28
2019-01-27T06:24:00.845Z,86.39
2019-01-27T06:26:30.556Z,86.59
2019-01-27T06:29:00.055Z,86.91
2019-01-27T06:31:29.564Z,86.71
2019-01-27T06:33:59.174Z,86.68
2019-01-27T06:36:28.690Z,86.84
2019-01-27T06:38:58.178Z,86.89
2019-01-27T06:41:27.678Z,86.75
2019-01-27T06:43:57.154Z,85.92
2019-01-27T06:46:26.660Z,86.15
2019-01-27T06:48:56.837Z,86.51
2019-01-27T06:51:26.315Z,86.97
2019-01-27T06:53:55.786Z,88.15
2019-01-27T06:56:25.265Z,88.20
2019-01-27T06:59:02.361Z,87.99
2019-01-27T07:01:33.552Z,87.24
2019-01-27T07:04:04.664Z,87.65
2019-01-27T07:06:48.435Z,87.82
2019-01-27T07:09:34.251Z,88.03
2019-01-27T07:12:05.388Z,87.85
2019-01-27T07:14:52.483Z,88.31
2019-01-27T07:17:23.666Z,88.50
2019-01-27T07:19:54.820Z,88.06
2019-01-27T07:22:40.843Z,88.16
2019-01-27T07:25:30.253Z,88.66
2019-01-27T07:28:10.251Z,89.09
2019-01-27T07:30:41.371Z,88.98
2019-01-27T07:33:28.343Z,88.50
2019-01-27T07:35:59.467Z,88.39
2019-01-27T07:38:30.593Z,87.33
2019-01-27T07:41:18.365Z,87.34
2019-01-27T07:43:49.572Z,87.23
2019-01-27T07:46:20.693Z,87.94
2019-01-27T07:48:54.812Z,87.79
2019-01-27T07:51:37.881Z,87.39
2019-01-27T07:54:17.646Z,86.92
2019-01-27T07:57:01.908Z,88.19
2019-01-27T07:59:39.236Z,88.12
2019-01-27T08:02:10.446Z,87.12
2019-01-27T08:04:53.772Z,86.51
2019-01-27T08:07:23.034Z,86.99
2019-01-27T08:10:03.339Z,87.62
2019-01-27T08:12:50.231Z,87.65
2019-01-27T08:15:21.469Z,87.28
2019-01-27T08:17:52.605Z,86.38
2019-01-27T08:20:29.465Z,86.57
2019-01-27T08:23:00.569Z,85.59
2019-01-27T08:25:31.713Z,85.15
2019-01-27T08:28:05.324Z,86.31
2019-01-27T08:30:36.487Z,86.10
2019-01-27T08:33:10.678Z,86.69
2019-01-27T08:35:47.765Z,86.25
2019-01-27T08:38:18.937Z,85.76
2019-01-27T08:40:50.024Z,85.32
2019-01-27T08:43:36.926Z,85.10
2019-01-27T08:46:08.055Z,85.19
2019-01-27T08:48:37.565Z,85.02
2019-01-27T08:51:07.480Z,85.87
2019-01-27T08:53:37.067Z,85.80
2019-01-27T08:56:06.570Z,85.72
2019-01-27T08:58:36.055Z,85.08
2019-01-27T09:01:07.523Z,84.61
2019-01-27T09:03:41.320Z,84.80
2019-01-27T09:06:21.430Z,84.49
2019-01-27T09:08:52.673Z,84.51
2019-01-27T09:11:23.788Z,83.96
2019-01-27T09:13:54.947Z,84.04
2019-01-27T09:16:44.022Z,84.24
2019-01-27T09:19:15.144Z,84.51
2019-01-27T09:21:48.859Z,83.60
2019-01-27T09:24:22.667Z,84.18
2019-01-27T09:26:56.473Z,83.21
2019-01-27T09:29:27.600Z,83.43
2019-01-27T09:32:01.411Z,84.26
2019-01-27T09:34:41.283Z,83.71
2019-01-27T09:37:28.758Z,83.40
2019-01-27T09:40:14.491Z,83.14
2019-01-27T09:42:46.251Z,82.88
2019-01-27T09:45:17.908Z,82.76
2019-01-27T09:48:04.165Z,83.18
2019-01-27T09:50:35.255Z,82.54
2019-01-27T09:53:12.144Z,82.73
2019-01-27T09:55:51.948Z,82.14
2019-01-27T09:58:26.004Z,80.80
2019-01-27T10:01:02.615Z,81.11
2019-01-27T10:03:45.700Z,81.35
2019-01-27T10:06:22.952Z,81.51
2019-01-27T10:09:06.061Z,80.82
2019-01-27T10:11:37.180Z,81.27
2019-01-27T10:14:08.522Z,80.72
2019-01-27T10:16:39.855Z,79.48
2019-01-27T10:19:16.668Z,79.37
2019-01-27T10:21:50.326Z,79.56
2019-01-27T10:24:21.451Z,79.87
2019-01-27T10:26:52.563Z,79.08
2019-01-27T10:29:29.368Z,77.57
2019-01-27T10:32:16.440Z,77.61
2019-01-27T10:34:59.522Z,78.58
2019-01-27T10:37:30.927Z,79.26
2019-01-27T10:40:09.155Z,79.08
2019-01-27T10:42:37.355Z,78.75
2019-01-27T10:45:20.238Z,78.82
2019-01-27T10:47:53.771Z,78.20
2019-01-27T10:50:28.410Z,77.93
2019-01-27T10:52:59.547Z,77.23
2019-01-27T10:55:33.793Z,76.45
2019-01-27T10:58:21.205Z,75.92
2019-01-27T11:00:52.398Z,76.70
2019-01-27T11:03:23.600Z,76.73
2019-01-27T11:06:11.740Z,75.27
2019-01-27T11:08:59.370Z,75.19
2019-01-27T11:11:31.029Z,76.23
2019-01-27T11:14:04.719Z,76.44
2019-01-27T11:16:38.816Z,77.34
2019-01-27T11:19:09.958Z,77.60
2019-01-27T11:21:41.613Z,77.41
2019-01-27T11:24:22.472Z,77.37
2019-01-27T11:26:59.895Z,77.96
2019-01-27T11:29:46.227Z,78.54
2019-01-27T11:32:27.017Z,78.71
2019-01-27T11:35:12.984Z,79.42
2019-01-27T11:37:44.098Z,78.96
2019-01-27T11:40:18.350Z,77.82
2019-01-27T11:42:49.907Z,77.34
2019-01-27T11:45:25.004Z,77.44
2019-01-27T11:48:13.864Z,76.42
2019-01-27T11:50:44.981Z,76.34
2019-01-27T11:53:14.483Z,77.41
2019-01-27T11:55:43.987Z,76.50
2019-01-27T11:58:13.451Z,77.16
2019-01-27T12:00:44.395Z,77.03
2019-01-27T12:03:13.994Z,78.24
2019-01-27T12:05:43.479Z,76.72
2019-01-27T12:08:12.971Z,76.89
2019-01-27T12:10:42.553Z,76.73
2019-01-27T12:13:12.006Z,76.57
2019-01-27T12:15:41.489Z,76.88
2019-01-27T12:18:11.011Z,77.14
2019-01-27T12:20:40.511Z,77.54
2019-01-27T12:23:09.948Z,76.91
2019-01-27T12:25:39.974Z,76.41
2019-01-27T12:28:09.800Z,76.39
2019-01-27T12:30:39.286Z,76.83
2019-01-27T12:33:08.784Z,75.19
2019-01-27T12:35:38.271Z,76.80
2019-01-27T12:38:07.753Z,76.61
2019-01-27T12:40:37.358Z,77.27
2019-01-27T12:43:06.833Z,76.95
2019-01-27T12:45:36.401Z,77.97
2019-01-27T12:48:06.288Z,77.98
2019-01-27T12:50:35.862Z,76.71
2019-01-27T12:53:05.471Z,76.15
2019-01-27T12:55:34.975Z,75.89
2019-01-27T12:58:05.005Z,77.00
2019-01-27T13:00:42.356Z,77.53
2019-01-27T13:03:11.914Z,77.68
2019-01-27T13:05:41.452Z,76.62
2019-01-27T13:08:11.025Z,76.20
2019-01-27T13:10:40.581Z,75.80
2019-01-27T13:13:12.165Z,75.94
2019-01-27T13:15:41.878Z,76.05
2019-01-27T13:18:11.397Z,75.99
2019-01-27T13:20:41.017Z,75.80
2019-01-27T13:23:10.549Z,76.48
2019-01-27T13:25:40.024Z,76.40
2019-01-27T13:28:09.517Z,75.54
2019-01-27T13:30:39.644Z,74.89
2019-01-27T13:33:09.164Z,75.05
2019-01-27T13:35:38.989Z,75.48
2019-01-27T13:38:08.778Z,75.34
2019-01-27T13:40:38.306Z,76.59
2019-01-27T13:43:08.352Z,76.19
2019-01-27T13:45:37.823Z,75.15
2019-01-27T13:48:07.373Z,76.20
2019-01-27T13:50:36.906Z,76.76
2019-01-27T13:53:07.275Z,77.18
2019-01-27T13:55:36.776Z,76.79
2019-01-27T13:58:06.583Z,76.03
2019-01-27T14:00:42.587Z,77.58
2019-01-27T14:03:12.146Z,77.51
2019-01-27T14:05:41.731Z,78.08
2019-01-27T14:08:11.842Z,77.54
2019-01-27T14:10:41.339Z,78.97
2019-01-27T14:13:10.827Z,79.37
2019-01-27T14:15:41.224Z,79.54
2019-01-27T14:18:11.137Z,79.98
2019-01-27T14:20:40.679Z,79.77
2019-01-27T14:23:10.556Z,80.06
2019-01-27T14:25:40.033Z,80.86
2019-01-27T14:28:09.528Z,80.71
2019-01-27T14:30:45.365Z,80.59
2019-01-27T14:33:14.842Z,80.80
2019-01-27T14:35:44.321Z,81.24
2019-01-27T14:38:13.857Z,80.95
2019-01-27T14:40:43.323Z,81.33
2019-01-27T14:43:12.826Z,81.82
2019-01-27T14:45:42.382Z,82.74
2019-01-27T14:48:11.855Z,82.30
2019-01-27T14:50:46.018Z,82.31
2019-01-27T14:53:15.845Z,82.87
2019-01-27T14:55:45.397Z,82.67
2019-01-27T14:58:14.966Z,83.15
2019-01-27T15:00:46.085Z,82.76
2019-01-27T15:03:16.536Z,82.62
2019-01-27T15:05:45.985Z,83.13
2019-01-27T15:08:15.520Z,83.56
2019-01-27T15:10:45.462Z,83.12
2019-01-27T15:13:15.034Z,83.00
2019-01-27T15:15:44.689Z,84.39
2019-01-27T15:18:14.173Z,84.43
2019-01-27T15:21:03.167Z,84.69
2019-01-27T15:23:33.291Z,85.07
2019-01-27T15:26:03.120Z,85.34
2019-01-27T15:28:32.652Z,85.68
2019-01-27T15:31:02.121Z,84.84
2019-01-27T15:33:31.591Z,84.84
2019-01-27T15:36:01.133Z,84.40
2019-01-27T15:38:30.601Z,83.19
2019-01-27T15:41:00.082Z,82.84
2019-01-27T15:43:29.594Z,83.16
2019-01-27T15:45:59.045Z,83.45
2019-01-27T15:48:28.527Z,83.80
2019-01-27T15:50:59.642Z,83.93
2019-01-27T15:53:29.798Z,83.85
2019-01-27T15:55:59.445Z,83.80
2019-01-27T15:58:29.057Z,84.36
2019-01-27T16:00:58.630Z,84.98
2019-01-27T16:03:28.533Z,84.85
2019-01-27T16:05:58.023Z,84.16
2019-01-27T16:08:27.523Z,84.39
2019-01-27T16:10:57.065Z,84.89
2019-01-27T16:13:26.639Z,85.55
2019-01-27T16:15:56.158Z,84.85
2019-01-27T16:18:25.633Z,84.71
2019-01-27T16:20:55.233Z,84.53
2019-01-27T16:23:29.994Z,84.27
2019-01-27T16:26:00.887Z,83.65
2019-01-27T16:28:30.369Z,84.08
2019-01-27T16:31:07.198Z,84.12
2019-01-27T16:33:44.044Z,84.00
2019-01-27T16:36:13.691Z,84.28
2019-01-27T16:38:43.180Z,84.59
2019-01-27T16:41:12.727Z,84.32
2019-01-27T16:43:42.211Z,84.78
2019-01-27T16:46:11.695Z,85.56
2019-01-27T16:48:41.181Z,85.38
2019-01-27T16:51:10.681Z,84.57
2019-01-27T16:53:40.648Z,84.52
2019-01-27T16:56:10.150Z,84.90
2019-01-27T16:58:39.784Z,85.52
2019-01-27T17:01:09.660Z,85.54
2019-01-27T17:03:39.144Z,85.16
2019-01-27T17:06:08.778Z,85.47
2019-01-27T17:08:38.243Z,85.59
2019-01-27T17:11:07.775Z,85.50
2019-01-27T17:13:37.378Z,85.86
2019-01-27T17:16:07.258Z,85.83
2019-01-27T17:18:37.145Z,85.21
2019-01-27T17:21:07.300Z,86.44
2019-01-27T17:23:36.792Z,86.19
2019-01-27T17:26:06.540Z,85.49
2019-01-27T17:28:36.056Z,84.50
2019-01-27T17:31:05.743Z,84.90
2019-01-27T17:33:35.247Z,85.87
2019-01-27T17:36:04.815Z,85.90
2019-01-27T17:38:40.383Z,85.30
2019-01-27T17:41:05.592Z,83.88
2019-01-27T17:43:35.598Z,84.90
2019-01-27T17:46:05.524Z,85.34
2019-01-27T17:48:35.020Z,85.82
2019-01-27T17:51:04.804Z,85.42
2019-01-27T17:53:35.948Z,84.79
2019-01-27T17:56:05.689Z,84.12
2019-01-27T17:58:54.328Z,86.00
2019-01-27T18:01:30.654Z,84.97
2019-01-27T18:04:01.814Z,84.51
2019-01-27T18:06:33.001Z,84.97
2019-01-27T18:09:16.015Z,85.18
2019-01-27T18:11:52.615Z,85.18
2019-01-27T18:14:24.021Z,84.95
2019-01-27T18:16:53.505Z,85.34
2019-01-27T18:19:23.009Z,85.04
2019-01-27T18:21:52.532Z,85.68
2019-01-27T18:24:22.029Z,84.90
2019-01-27T18:26:51.528Z,84.44
2019-01-27T18:29:21.061Z,85.04
2019-01-27T18:31:50.596Z,85.37
2019-01-27T18:34:20.048Z,86.34
2019-01-27T18:36:49.604Z,85.89
2019-01-27T18:39:19.125Z,85.09
2019-01-27T18:41:48.566Z,85.92
2019-01-27T18:44:18.099Z,86.37
2019-01-27T18:46:47.648Z,85.92
2019-01-27T18:49:17.125Z,86.77
2019-01-27T18:51:46.678Z,87.03
2019-01-27T18:54:34.151Z,85.75
2019-01-27T18:57:07.775Z,87.56
2019-01-27T18:59:44.682Z,87.47
2019-01-27T19:02:27.358Z,86.97
2019-01-27T19:04:58.519Z,87.37
2019-01-27T19:07:29.689Z,87.79
2019-01-27T19:10:01.197Z,87.01
2019-01-27T19:12:34.866Z,87.15
2019-01-27T19:15:16.302Z,87.46
2019-01-27T19:17:52.994Z,86.93
2019-01-27T19:20:30.085Z,88.00
2019-01-27T19:23:17.428Z,88.43
2019-01-27T19:25:54.591Z,87.83
2019-01-27T19:28:31.161Z,88.41
2019-01-27T19:31:03.095Z,87.96
2019-01-27T19:33:37.905Z,87.66
2019-01-27T19:36:09.336Z,86.67
2019-01-27T19:38:43.654Z,86.90
2019-01-27T19:44:19.161Z,85.30
2019-01-27T19:46:56.200Z,85.49
2019-01-27T19:49:30.101Z,87.16
2019-01-27T19:52:13.244Z,86.61
2019-01-27T19:54:54.501Z,87.46
2019-01-27T19:57:34.855Z,87.54
2019-01-27T20:00:10.431Z,87.04
2019-01-27T20:02:48.246Z,85.86
2019-01-27T20:05:35.677Z,86.14
2019-01-27T20:08:09.786Z,86.52
2019-01-27T20:10:40.911Z,86.35
2019-01-27T20:13:15.142Z,87.23
2019-01-27T20:15:46.341Z,87.28
2019-01-27T20:18:17.484Z,88.18
2019-01-27T20:20:55.148Z,87.98
2019-01-27T20:23:32.208Z,87.20
2019-01-27T20:26:06.204Z,86.40
2019-01-27T20:28:45.886Z,87.20
2019-01-27T20:31:33.317Z,87.43
2019-01-27T20:34:04.472Z,87.84
2019-01-27T20:36:44.690Z,87.19
2019-01-27T20:39:18.303Z,87.65
2019-01-27T20:41:49.472Z,86.92
2019-01-27T20:44:35.633Z,86.66
2019-01-27T20:47:06.857Z,85.70
2019-01-27T20:49:41.450Z,84.29
2019-01-27T20:52:25.433Z,84.43
2019-01-27T20:54:59.448Z,84.10
2019-01-27T20:57:30.597Z,84.16
2019-01-27T21:00:01.766Z,83.32
2019-01-27T21:02:36.019Z,83.22
2019-01-27T21:05:09.900Z,82.82
2019-01-27T21:07:47.023Z,82.50
2019-01-27T21:10:27.600Z,82.64
2019-01-27T21:13:05.087Z,83.11
2019-01-27T21:15:44.019Z,82.94
2019-01-27T21:18:12.312Z,82.81
2019-01-27T21:20:42.080Z,82.91
2019-01-27T21:23:13.061Z,81.46
2019-01-27T21:25:42.586Z,80.76
2019-01-27T21:28:12.318Z,80.62
2019-01-27T21:30:41.973Z,80.40
2019-01-27T21:33:11.954Z,79.81
2019-01-27T21:35:41.464Z,79.76
2019-01-27T21:38:10.932Z,80.15
2019-01-27T21:40:40.416Z,80.43
2019-01-27T21:43:10.202Z,80.10
2019-01-27T21:45:39.681Z,80.40
2019-01-27T21:48:09.213Z,80.13
2019-01-27T21:50:38.692Z,80.44
2019-01-27T21:53:08.295Z,80.10
2019-01-27T21:55:37.920Z,80.60
2019-01-27T21:58:07.380Z,81.07
2019-01-27T22:00:36.859Z,80.12
2019-01-27T22:03:06.532Z,80.17
2019-01-27T22:05:36.074Z,80.35
2019-01-27T22:08:05.653Z,80.19
2019-01-27T22:10:35.183Z,79.73
2019-01-27T22:13:04.867Z,79.37
2019-01-27T22:15:34.359Z,78.96
2019-01-27T22:18:04.520Z,79.09
2019-01-27T22:20:34.008Z,78.63
2019-01-27T22:23:03.570Z,78.35
2019-01-27T22:25:33.220Z,77.76
2019-01-27T22:28:02.711Z,79.00
2019-01-27T22:30:32.201Z,78.11
2019-01-27T22:33:01.698Z,78.54
2019-01-27T22:35:31.221Z,80.08
2019-01-27T22:38:00.870Z,80.33
2019-01-27T22:40:30.665Z,79.71
2019-01-27T22:43:00.172Z,79.58
2019-01-27T22:45:29.677Z,79.28
2019-01-27T22:47:59.734Z,78.26
2019-01-27T22:50:29.279Z,78.25
2019-01-27T22:52:59.157Z,78.25
2019-01-27T22:55:28.691Z,79.07
2019-01-27T22:57:58.161Z,79.19
2019-01-27T23:00:42.382Z,79.15
2019-01-27T23:03:11.893Z,78.49
2019-01-27T23:05:41.391Z,79.98
2019-01-27T23:08:10.882Z,79.78
2019-01-27T23:10:40.784Z,79.92
2019-01-27T23:13:10.271Z,80.83
2019-01-27T23:15:39.798Z,81.88
2019-01-27T23:18:09.302Z,82.00
2019-01-27T23:20:38.794Z,81.46
2019-01-27T23:23:08.846Z,81.95
2019-01-27T23:25:38.329Z,81.41
2019-01-27T23:28:07.822Z,81.20
2019-01-27T23:30:37.379Z,80.49
2019-01-27T23:33:07.552Z,80.12
2019-01-27T23:35:37.149Z,81.32
2019-01-27T23:38:06.877Z,81.53
2019-01-27T23:40:36.358Z,82.29
2019-01-27T23:43:05.838Z,82.24
2019-01-27T23:45:35.468Z,82.05
2019-01-27T23:48:05.021Z,82.19
2019-01-27T23:50:34.508Z,82.25
2019-01-27T23:53:05.641Z,81.58
2019-01-27T23:55:35.691Z,80.36
2019-01-27T23:58:05.334Z,80.46
